sensor_id;sensor_type;location;lat;lon;timestamp;P1;durP1;ratioP1;P2;durP2;ratioP2
14611;SDS011;7392;52.078;11.650;2022-10-16T00:00:51;0.67;;;0.67;;
14611;SDS011;7392;52.078;11.650;2022-10-16T00:03:19;0.90;;;0.90;;
14611;SDS011;7392;52.078;11.650;2022-10-16T00:05:54;0.97;;;0.80;;
14611;SDS011;7392;52.078;11.650;2022-10-16T00:08:26;0.73;;;0.73;;
14611;SDS011;7392;52.078;11.650;2022-10-16T00:10:58;0.90;;;0.77;;
14611;SDS011;7392;52.078;11.650;2022-10-16T00:13:26;0.73;;;0.70;;
14611;SDS011;7392;52.078;11.650;2022-10-16T00:15:55;0.70;;;0.70;;
14611;SDS011;7392;52.078;11.650;2022-10-16T00:18:24;0.70;;;0.70;;
14611;SDS011;7392;52.078;11.650;2022-10-16T00:20:52;0.60;;;0.60;;
14611;SDS011;7392;52.078;11.650;2022-10-16T00:23:26;0.70;;;0.70;;
14611;SDS011;7392;52.078;11.650;2022-10-16T00:25:54;0.70;;;0.70;;
14611;SDS011;7392;52.078;11.650;2022-10-16T00:28:23;0.60;;;0.60;;
14611;SDS011;7392;52.078;11.650;2022-10-16T00:30:51;0.60;;;0.60;;
14611;SDS011;7392;52.078;11.650;2022-10-16T00:33:20;0.60;;;0.60;;
14611;SDS011;7392;52.078;11.650;2022-10-16T00:35:48;0.67;;;0.67;;
14611;SDS011;7392;52.078;11.650;2022-10-16T00:38:16;0.67;;;0.67;;
14611;SDS011;7392;52.078;11.650;2022-10-16T00:40:45;0.70;;;0.70;;
14611;SDS011;7392;52.078;11.650;2022-10-16T00:43:13;1.13;;;0.70;;
14611;SDS011;7392;52.078;11.650;2022-10-16T00:45:59;0.60;;;0.60;;
14611;SDS011;7392;52.078;11.650;2022-10-16T00:48:28;0.50;;;0.50;;
14611;SDS011;7392;52.078;11.650;2022-10-16T00:50:57;0.60;;;0.60;;
14611;SDS011;7392;52.078;11.650;2022-10-16T00:53:25;0.57;;;0.57;;
14611;SDS011;7392;52.078;11.650;2022-10-16T00:55:56;0.40;;;0.40;;
14611;SDS011;7392;52.078;11.650;2022-10-16T00:58:24;0.50;;;0.50;;
14611;SDS011;7392;52.078;11.650;2022-10-16T01:00:52;0.30;;;0.30;;
14611;SDS011;7392;52.078;11.650;2022-10-16T01:03:24;0.40;;;0.40;;
14611;SDS011;7392;52.078;11.650;2022-10-16T01:05:57;0.50;;;0.50;;
14611;SDS011;7392;52.078;11.650;2022-10-16T01:08:44;0.50;;;0.50;;
14611;SDS011;7392;52.078;11.650;2022-10-16T01:11:22;0.30;;;0.30;;
14611;SDS011;7392;52.078;11.650;2022-10-16T01:13:57;0.40;;;0.40;;
14611;SDS011;7392;52.078;11.650;2022-10-16T01:16:30;0.20;;;0.20;;
14611;SDS011;7392;52.078;11.650;2022-10-16T01:19:04;0.50;;;0.50;;
14611;SDS011;7392;52.078;11.650;2022-10-16T01:21:39;0.20;;;0.20;;
14611;SDS011;7392;52.078;11.650;2022-10-16T01:24:12;0.43;;;0.40;;
14611;SDS011;7392;52.078;11.650;2022-10-16T01:29:33;0.53;;;0.40;;
14611;SDS011;7392;52.078;11.650;2022-10-16T01:32:05;0.37;;;0.30;;
14611;SDS011;7392;52.078;11.650;2022-10-16T01:34:41;0.40;;;0.40;;
14611;SDS011;7392;52.078;11.650;2022-10-16T01:37:15;0.30;;;0.30;;
14611;SDS011;7392;52.078;11.650;2022-10-16T01:39:54;0.30;;;0.30;;
14611;SDS011;7392;52.078;11.650;2022-10-16T01:42:27;0.30;;;0.30;;
14611;SDS011;7392;52.078;11.650;2022-10-16T01:45:00;0.30;;;0.30;;
14611;SDS011;7392;52.078;11.650;2022-10-16T01:47:32;0.20;;;0.20;;
14611;SDS011;7392;52.078;11.650;2022-10-16T01:50:03;0.50;;;0.50;;
14611;SDS011;7392;52.078;11.650;2022-10-16T01:52:34;0.40;;;0.40;;
14611;SDS011;7392;52.078;11.650;2022-10-16T01:55:04;0.43;;;0.43;;
14611;SDS011;7392;52.078;11.650;2022-10-16T01:57:37;0.40;;;0.40;;
14611;SDS011;7392;52.078;11.650;2022-10-16T02:00:10;0.50;;;0.50;;
14611;SDS011;7392;52.078;11.650;2022-10-16T02:02:40;0.37;;;0.37;;
14611;SDS011;7392;52.078;11.650;2022-10-16T02:05:13;0.50;;;0.50;;
14611;SDS011;7392;52.078;11.650;2022-10-16T02:07:45;0.53;;;0.53;;
14611;SDS011;7392;52.078;11.650;2022-10-16T02:10:14;0.40;;;0.40;;
14611;SDS011;7392;52.078;11.650;2022-10-16T02:12:44;0.43;;;0.40;;
14611;SDS011;7392;52.078;11.650;2022-10-16T02:15:17;0.90;;;0.70;;
14611;SDS011;7392;52.078;11.650;2022-10-16T02:17:45;0.77;;;0.57;;
14611;SDS011;7392;52.078;11.650;2022-10-16T02:20:13;0.70;;;0.70;;
14611;SDS011;7392;52.078;11.650;2022-10-16T02:22:42;0.70;;;0.60;;
14611;SDS011;7392;52.078;11.650;2022-10-16T02:25:14;0.50;;;0.50;;
14611;SDS011;7392;52.078;11.650;2022-10-16T02:27:47;0.50;;;0.50;;
14611;SDS011;7392;52.078;11.650;2022-10-16T02:30:22;0.60;;;0.60;;
14611;SDS011;7392;52.078;11.650;2022-10-16T02:32:55;0.70;;;0.70;;
14611;SDS011;7392;52.078;11.650;2022-10-16T02:35:26;0.80;;;0.70;;
14611;SDS011;7392;52.078;11.650;2022-10-16T02:37:55;0.83;;;0.60;;
14611;SDS011;7392;52.078;11.650;2022-10-16T02:40:24;0.50;;;0.50;;
14611;SDS011;7392;52.078;11.650;2022-10-16T02:42:55;0.60;;;0.60;;
14611;SDS011;7392;52.078;11.650;2022-10-16T02:45:23;0.60;;;0.60;;
14611;SDS011;7392;52.078;11.650;2022-10-16T02:47:51;1.47;;;0.70;;
14611;SDS011;7392;52.078;11.650;2022-10-16T02:50:19;0.50;;;0.50;;
14611;SDS011;7392;52.078;11.650;2022-10-16T02:52:47;0.80;;;0.70;;
14611;SDS011;7392;52.078;11.650;2022-10-16T02:55:15;0.70;;;0.70;;
14611;SDS011;7392;52.078;11.650;2022-10-16T02:57:43;0.60;;;0.60;;
14611;SDS011;7392;52.078;11.650;2022-10-16T03:00:13;0.80;;;0.70;;
14611;SDS011;7392;52.078;11.650;2022-10-16T03:02:42;0.70;;;0.60;;
14611;SDS011;7392;52.078;11.650;2022-10-16T03:05:11;0.70;;;0.70;;
14611;SDS011;7392;52.078;11.650;2022-10-16T03:07:39;1.00;;;0.90;;
14611;SDS011;7392;52.078;11.650;2022-10-16T03:10:07;0.83;;;0.83;;
14611;SDS011;7392;52.078;11.650;2022-10-16T03:12:36;1.27;;;1.00;;
14611;SDS011;7392;52.078;11.650;2022-10-16T03:15:04;1.30;;;1.10;;
14611;SDS011;7392;52.078;11.650;2022-10-16T03:17:34;1.50;;;1.10;;
14611;SDS011;7392;52.078;11.650;2022-10-16T03:20:02;1.40;;;1.27;;
14611;SDS011;7392;52.078;11.650;2022-10-16T03:22:30;1.30;;;1.20;;
14611;SDS011;7392;52.078;11.650;2022-10-16T03:24:58;1.50;;;1.23;;
14611;SDS011;7392;52.078;11.650;2022-10-16T03:27:26;1.10;;;0.93;;
14611;SDS011;7392;52.078;11.650;2022-10-16T03:29:55;1.27;;;1.03;;
14611;SDS011;7392;52.078;11.650;2022-10-16T03:32:22;0.80;;;0.80;;
14611;SDS011;7392;52.078;11.650;2022-10-16T03:34:53;0.90;;;0.80;;
14611;SDS011;7392;52.078;11.650;2022-10-16T03:37:22;0.87;;;0.80;;
14611;SDS011;7392;52.078;11.650;2022-10-16T03:39:50;0.70;;;0.70;;
14611;SDS011;7392;52.078;11.650;2022-10-16T03:42:19;1.07;;;0.80;;
14611;SDS011;7392;52.078;11.650;2022-10-16T03:44:47;0.70;;;0.70;;
14611;SDS011;7392;52.078;11.650;2022-10-16T03:47:14;0.67;;;0.50;;
14611;SDS011;7392;52.078;11.650;2022-10-16T03:49:47;0.77;;;0.63;;
14611;SDS011;7392;52.078;11.650;2022-10-16T03:52:16;0.87;;;0.70;;
14611;SDS011;7392;52.078;11.650;2022-10-16T03:54:49;0.70;;;0.67;;
14611;SDS011;7392;52.078;11.650;2022-10-16T03:57:17;0.60;;;0.60;;
14611;SDS011;7392;52.078;11.650;2022-10-16T03:59:45;1.10;;;0.80;;
14611;SDS011;7392;52.078;11.650;2022-10-16T04:02:13;1.00;;;0.90;;
14611;SDS011;7392;52.078;11.650;2022-10-16T04:04:41;0.70;;;0.70;;
14611;SDS011;7392;52.078;11.650;2022-10-16T04:07:08;0.70;;;0.70;;
14611;SDS011;7392;52.078;11.650;2022-10-16T04:09:37;0.60;;;0.60;;
14611;SDS011;7392;52.078;11.650;2022-10-16T04:12:05;0.70;;;0.50;;
14611;SDS011;7392;52.078;11.650;2022-10-16T04:14:33;0.70;;;0.63;;
14611;SDS011;7392;52.078;11.650;2022-10-16T04:17:01;0.70;;;0.70;;
14611;SDS011;7392;52.078;11.650;2022-10-16T04:19:29;0.53;;;0.53;;
14611;SDS011;7392;52.078;11.650;2022-10-16T04:21:57;0.60;;;0.60;;
14611;SDS011;7392;52.078;11.650;2022-10-16T04:24:24;0.60;;;0.60;;
14611;SDS011;7392;52.078;11.650;2022-10-16T04:26:55;0.53;;;0.53;;
14611;SDS011;7392;52.078;11.650;2022-10-16T04:29:23;0.50;;;0.50;;
14611;SDS011;7392;52.078;11.650;2022-10-16T04:31:51;0.47;;;0.47;;
14611;SDS011;7392;52.078;11.650;2022-10-16T04:34:18;0.53;;;0.50;;
14611;SDS011;7392;52.078;11.650;2022-10-16T04:36:46;0.70;;;0.43;;
14611;SDS011;7392;52.078;11.650;2022-10-16T04:39:15;0.57;;;0.57;;
14611;SDS011;7392;52.078;11.650;2022-10-16T04:41:43;0.60;;;0.60;;
14611;SDS011;7392;52.078;11.650;2022-10-16T04:44:12;0.40;;;0.40;;
14611;SDS011;7392;52.078;11.650;2022-10-16T04:46:40;0.50;;;0.50;;
14611;SDS011;7392;52.078;11.650;2022-10-16T04:49:08;0.87;;;0.80;;
14611;SDS011;7392;52.078;11.650;2022-10-16T04:51:36;0.90;;;0.80;;
14611;SDS011;7392;52.078;11.650;2022-10-16T04:54:03;0.67;;;0.60;;
14611;SDS011;7392;52.078;11.650;2022-10-16T04:56:31;0.50;;;0.50;;
14611;SDS011;7392;52.078;11.650;2022-10-16T04:59:06;0.40;;;0.40;;
14611;SDS011;7392;52.078;11.650;2022-10-16T05:01:35;0.60;;;0.60;;
14611;SDS011;7392;52.078;11.650;2022-10-16T05:04:03;1.13;;;0.70;;
14611;SDS011;7392;52.078;11.650;2022-10-16T05:06:31;0.70;;;0.70;;
14611;SDS011;7392;52.078;11.650;2022-10-16T05:08:59;0.37;;;0.37;;
14611;SDS011;7392;52.078;11.650;2022-10-16T05:11:26;0.67;;;0.67;;
14611;SDS011;7392;52.078;11.650;2022-10-16T05:13:54;0.50;;;0.50;;
14611;SDS011;7392;52.078;11.650;2022-10-16T05:16:22;1.27;;;0.60;;
14611;SDS011;7392;52.078;11.650;2022-10-16T05:18:52;1.13;;;0.87;;
14611;SDS011;7392;52.078;11.650;2022-10-16T05:21:35;0.67;;;0.57;;
14611;SDS011;7392;52.078;11.650;2022-10-16T05:24:03;0.70;;;0.70;;
14611;SDS011;7392;52.078;11.650;2022-10-16T05:26:31;0.47;;;0.47;;
14611;SDS011;7392;52.078;11.650;2022-10-16T05:28:59;0.60;;;0.60;;
14611;SDS011;7392;52.078;11.650;2022-10-16T05:31:27;0.40;;;0.40;;
14611;SDS011;7392;52.078;11.650;2022-10-16T05:33:59;0.50;;;0.50;;
14611;SDS011;7392;52.078;11.650;2022-10-16T05:36:27;0.50;;;0.50;;
14611;SDS011;7392;52.078;11.650;2022-10-16T05:38:55;0.30;;;0.30;;
14611;SDS011;7392;52.078;11.650;2022-10-16T05:41:22;0.50;;;0.50;;
14611;SDS011;7392;52.078;11.650;2022-10-16T05:43:52;0.40;;;0.40;;
14611;SDS011;7392;52.078;11.650;2022-10-16T05:46:20;0.33;;;0.33;;
14611;SDS011;7392;52.078;11.650;2022-10-16T05:48:48;0.43;;;0.40;;
14611;SDS011;7392;52.078;11.650;2022-10-16T05:51:20;0.40;;;0.40;;
14611;SDS011;7392;52.078;11.650;2022-10-16T05:53:47;0.20;;;0.20;;
14611;SDS011;7392;52.078;11.650;2022-10-16T05:56:15;0.40;;;0.40;;
14611;SDS011;7392;52.078;11.650;2022-10-16T05:58:43;0.50;;;0.50;;
14611;SDS011;7392;52.078;11.650;2022-10-16T06:01:12;0.40;;;0.40;;
14611;SDS011;7392;52.078;11.650;2022-10-16T06:03:41;0.50;;;0.50;;
14611;SDS011;7392;52.078;11.650;2022-10-16T06:06:09;0.60;;;0.60;;
14611;SDS011;7392;52.078;11.650;2022-10-16T06:08:39;0.50;;;0.40;;
14611;SDS011;7392;52.078;11.650;2022-10-16T06:11:08;0.30;;;0.30;;
14611;SDS011;7392;52.078;11.650;2022-10-16T06:13:39;0.40;;;0.40;;
14611;SDS011;7392;52.078;11.650;2022-10-16T06:16:08;0.40;;;0.40;;
14611;SDS011;7392;52.078;11.650;2022-10-16T06:18:37;1.80;;;0.43;;
14611;SDS011;7392;52.078;11.650;2022-10-16T06:21:09;0.57;;;0.57;;
14611;SDS011;7392;52.078;11.650;2022-10-16T06:23:40;0.60;;;0.60;;
14611;SDS011;7392;52.078;11.650;2022-10-16T06:26:08;0.50;;;0.50;;
14611;SDS011;7392;52.078;11.650;2022-10-16T06:28:37;0.67;;;0.67;;
14611;SDS011;7392;52.078;11.650;2022-10-16T06:31:07;0.80;;;0.80;;
14611;SDS011;7392;52.078;11.650;2022-10-16T06:33:36;0.70;;;0.70;;
14611;SDS011;7392;52.078;11.650;2022-10-16T06:36:05;0.40;;;0.40;;
14611;SDS011;7392;52.078;11.650;2022-10-16T06:38:35;0.50;;;0.50;;
14611;SDS011;7392;52.078;11.650;2022-10-16T06:41:04;0.67;;;0.67;;
14611;SDS011;7392;52.078;11.650;2022-10-16T06:43:33;0.50;;;0.50;;
14611;SDS011;7392;52.078;11.650;2022-10-16T06:46:03;0.50;;;0.50;;
14611;SDS011;7392;52.078;11.650;2022-10-16T06:48:33;1.50;;;0.80;;
14611;SDS011;7392;52.078;11.650;2022-10-16T06:51:01;1.50;;;1.03;;
14611;SDS011;7392;52.078;11.650;2022-10-16T06:53:37;0.50;;;0.50;;
14611;SDS011;7392;52.078;11.650;2022-10-16T06:56:27;1.13;;;0.60;;
14611;SDS011;7392;52.078;11.650;2022-10-16T06:58:57;0.53;;;0.50;;
14611;SDS011;7392;52.078;11.650;2022-10-16T07:01:26;0.60;;;0.60;;
14611;SDS011;7392;52.078;11.650;2022-10-16T07:03:55;0.63;;;0.60;;
14611;SDS011;7392;52.078;11.650;2022-10-16T07:06:23;0.70;;;0.70;;
14611;SDS011;7392;52.078;11.650;2022-10-16T07:08:52;1.33;;;0.90;;
14611;SDS011;7392;52.078;11.650;2022-10-16T07:11:21;0.70;;;0.70;;
14611;SDS011;7392;52.078;11.650;2022-10-16T07:13:51;1.20;;;1.00;;
14611;SDS011;7392;52.078;11.650;2022-10-16T07:16:22;1.00;;;1.00;;
14611;SDS011;7392;52.078;11.650;2022-10-16T07:18:51;1.50;;;1.17;;
14611;SDS011;7392;52.078;11.650;2022-10-16T07:21:24;2.50;;;1.33;;
14611;SDS011;7392;52.078;11.650;2022-10-16T07:23:54;1.40;;;1.30;;
14611;SDS011;7392;52.078;11.650;2022-10-16T07:26:23;1.50;;;1.20;;
14611;SDS011;7392;52.078;11.650;2022-10-16T07:28:53;1.83;;;1.40;;
14611;SDS011;7392;52.078;11.650;2022-10-16T07:31:22;3.07;;;1.80;;
14611;SDS011;7392;52.078;11.650;2022-10-16T07:33:50;1.67;;;1.57;;
14611;SDS011;7392;52.078;11.650;2022-10-16T07:36:18;1.40;;;1.30;;
14611;SDS011;7392;52.078;11.650;2022-10-16T07:38:47;1.20;;;1.10;;
14611;SDS011;7392;52.078;11.650;2022-10-16T07:41:20;1.47;;;1.20;;
14611;SDS011;7392;52.078;11.650;2022-10-16T07:43:48;1.20;;;1.10;;
14611;SDS011;7392;52.078;11.650;2022-10-16T07:46:19;0.90;;;0.90;;
14611;SDS011;7392;52.078;11.650;2022-10-16T07:48:48;1.10;;;1.00;;
14611;SDS011;7392;52.078;11.650;2022-10-16T07:51:17;1.53;;;1.10;;
14611;SDS011;7392;52.078;11.650;2022-10-16T07:53:47;0.90;;;0.90;;
14611;SDS011;7392;52.078;11.650;2022-10-16T07:56:15;1.00;;;0.90;;
14611;SDS011;7392;52.078;11.650;2022-10-16T07:58:44;1.07;;;1.07;;
14611;SDS011;7392;52.078;11.650;2022-10-16T08:01:13;1.40;;;1.30;;
14611;SDS011;7392;52.078;11.650;2022-10-16T08:03:44;2.03;;;1.70;;
14611;SDS011;7392;52.078;11.650;2022-10-16T08:06:13;1.40;;;1.30;;
14611;SDS011;7392;52.078;11.650;2022-10-16T08:08:41;1.60;;;1.50;;
14611;SDS011;7392;52.078;11.650;2022-10-16T08:11:08;1.90;;;1.63;;
14611;SDS011;7392;52.078;11.650;2022-10-16T08:13:36;1.50;;;1.40;;
14611;SDS011;7392;52.078;11.650;2022-10-16T08:16:05;1.60;;;1.50;;
14611;SDS011;7392;52.078;11.650;2022-10-16T08:18:34;1.20;;;1.10;;
14611;SDS011;7392;52.078;11.650;2022-10-16T08:21:04;1.73;;;1.63;;
14611;SDS011;7392;52.078;11.650;2022-10-16T08:23:33;1.47;;;1.37;;
14611;SDS011;7392;52.078;11.650;2022-10-16T08:26:02;1.57;;;1.30;;
14611;SDS011;7392;52.078;11.650;2022-10-16T08:28:31;1.80;;;1.50;;
14611;SDS011;7392;52.078;11.650;2022-10-16T08:31:07;1.30;;;1.20;;
14611;SDS011;7392;52.078;11.650;2022-10-16T08:33:36;1.20;;;1.10;;
14611;SDS011;7392;52.078;11.650;2022-10-16T08:36:06;1.30;;;1.20;;
14611;SDS011;7392;52.078;11.650;2022-10-16T08:38:34;1.30;;;1.20;;
14611;SDS011;7392;52.078;11.650;2022-10-16T08:41:10;1.20;;;1.10;;
14611;SDS011;7392;52.078;11.650;2022-10-16T08:43:55;1.50;;;1.00;;
14611;SDS011;7392;52.078;11.650;2022-10-16T08:46:48;1.03;;;1.03;;
14611;SDS011;7392;52.078;11.650;2022-10-16T08:49:24;1.40;;;1.20;;
14611;SDS011;7392;52.078;11.650;2022-10-16T08:51:53;2.13;;;1.00;;
14611;SDS011;7392;52.078;11.650;2022-10-16T08:54:26;1.50;;;1.40;;
14611;SDS011;7392;52.078;11.650;2022-10-16T08:56:57;1.50;;;1.30;;
14611;SDS011;7392;52.078;11.650;2022-10-16T08:59:35;1.17;;;1.07;;
14611;SDS011;7392;52.078;11.650;2022-10-16T09:02:03;1.77;;;1.00;;
14611;SDS011;7392;52.078;11.650;2022-10-16T09:04:55;3.37;;;2.93;;
14611;SDS011;7392;52.078;11.650;2022-10-16T09:07:43;4.33;;;3.93;;
14611;SDS011;7392;52.078;11.650;2022-10-16T09:10:21;4.60;;;4.20;;
14611;SDS011;7392;52.078;11.650;2022-10-16T09:13:00;3.83;;;3.53;;
14611;SDS011;7392;52.078;11.650;2022-10-16T09:15:38;3.10;;;2.70;;
14611;SDS011;7392;52.078;11.650;2022-10-16T09:18:09;2.77;;;2.20;;
14611;SDS011;7392;52.078;11.650;2022-10-16T09:20:46;1.57;;;1.40;;
14611;SDS011;7392;52.078;11.650;2022-10-16T09:23:19;1.37;;;1.27;;
14611;SDS011;7392;52.078;11.650;2022-10-16T09:25:53;1.70;;;1.50;;
14611;SDS011;7392;52.078;11.650;2022-10-16T09:28:22;1.57;;;1.47;;
14611;SDS011;7392;52.078;11.650;2022-10-16T09:30:50;1.97;;;1.70;;
14611;SDS011;7392;52.078;11.650;2022-10-16T09:33:19;2.30;;;2.10;;
14611;SDS011;7392;52.078;11.650;2022-10-16T09:35:50;1.90;;;1.80;;
14611;SDS011;7392;52.078;11.650;2022-10-16T09:38:25;2.23;;;1.30;;
14611;SDS011;7392;52.078;11.650;2022-10-16T09:40:55;1.30;;;1.03;;
14611;SDS011;7392;52.078;11.650;2022-10-16T09:43:31;2.07;;;1.00;;
14611;SDS011;7392;52.078;11.650;2022-10-16T09:46:04;1.03;;;0.80;;
14611;SDS011;7392;52.078;11.650;2022-10-16T09:48:36;0.80;;;0.80;;
14611;SDS011;7392;52.078;11.650;2022-10-16T09:51:05;0.90;;;0.60;;
14611;SDS011;7392;52.078;11.650;2022-10-16T09:53:45;1.10;;;0.67;;
14611;SDS011;7392;52.078;11.650;2022-10-16T09:56:21;0.60;;;0.60;;
14611;SDS011;7392;52.078;11.650;2022-10-16T09:58:50;0.50;;;0.50;;
14611;SDS011;7392;52.078;11.650;2022-10-16T10:01:19;1.07;;;0.80;;
14611;SDS011;7392;52.078;11.650;2022-10-16T10:03:50;1.33;;;0.77;;
14611;SDS011;7392;52.078;11.650;2022-10-16T10:06:21;0.60;;;0.60;;
14611;SDS011;7392;52.078;11.650;2022-10-16T10:08:54;0.70;;;0.70;;
14611;SDS011;7392;52.078;11.650;2022-10-16T10:11:36;0.60;;;0.40;;
14611;SDS011;7392;52.078;11.650;2022-10-16T10:14:06;1.77;;;1.30;;
14611;SDS011;7392;52.078;11.650;2022-10-16T10:16:44;1.50;;;1.30;;
14611;SDS011;7392;52.078;11.650;2022-10-16T10:19:13;2.30;;;1.20;;
14611;SDS011;7392;52.078;11.650;2022-10-16T10:21:42;0.97;;;0.80;;
14611;SDS011;7392;52.078;11.650;2022-10-16T10:24:13;1.53;;;0.60;;
14611;SDS011;7392;52.078;11.650;2022-10-16T10:26:44;2.03;;;0.60;;
14611;SDS011;7392;52.078;11.650;2022-10-16T10:29:19;0.70;;;0.50;;
14611;SDS011;7392;52.078;11.650;2022-10-16T10:32:10;2.20;;;0.77;;
14611;SDS011;7392;52.078;11.650;2022-10-16T10:34:52;0.63;;;0.63;;
14611;SDS011;7392;52.078;11.650;2022-10-16T10:37:37;1.73;;;0.70;;
14611;SDS011;7392;52.078;11.650;2022-10-16T10:40:28;2.40;;;0.70;;
14611;SDS011;7392;52.078;11.650;2022-10-16T10:43:04;0.57;;;0.57;;
14611;SDS011;7392;52.078;11.650;2022-10-16T10:45:41;1.17;;;0.50;;
14611;SDS011;7392;52.078;11.650;2022-10-16T10:48:22;1.30;;;0.50;;
14611;SDS011;7392;52.078;11.650;2022-10-16T10:51:00;0.50;;;0.50;;
14611;SDS011;7392;52.078;11.650;2022-10-16T10:53:35;0.50;;;0.50;;
14611;SDS011;7392;52.078;11.650;2022-10-16T10:56:15;0.53;;;0.50;;
14611;SDS011;7392;52.078;11.650;2022-10-16T10:59:02;0.80;;;0.50;;
14611;SDS011;7392;52.078;11.650;2022-10-16T11:01:44;2.10;;;0.60;;
14611;SDS011;7392;52.078;11.650;2022-10-16T11:07:21;1.13;;;0.70;;
14611;SDS011;7392;52.078;11.650;2022-10-16T11:09:56;0.80;;;0.57;;
14611;SDS011;7392;52.078;11.650;2022-10-16T11:12:29;0.50;;;0.50;;
14611;SDS011;7392;52.078;11.650;2022-10-16T11:15:03;0.50;;;0.50;;
14611;SDS011;7392;52.078;11.650;2022-10-16T11:17:38;1.00;;;0.60;;
14611;SDS011;7392;52.078;11.650;2022-10-16T11:20:12;0.60;;;0.50;;
14611;SDS011;7392;52.078;11.650;2022-10-16T11:22:44;1.37;;;0.50;;
14611;SDS011;7392;52.078;11.650;2022-10-16T11:25:18;0.40;;;0.40;;
14611;SDS011;7392;52.078;11.650;2022-10-16T11:27:51;1.67;;;0.60;;
14611;SDS011;7392;52.078;11.650;2022-10-16T11:30:25;3.03;;;0.60;;
14611;SDS011;7392;52.078;11.650;2022-10-16T11:33:00;1.97;;;0.57;;
14611;SDS011;7392;52.078;11.650;2022-10-16T11:35:39;0.50;;;0.40;;
14611;SDS011;7392;52.078;11.650;2022-10-16T11:38:13;0.90;;;0.50;;
14611;SDS011;7392;52.078;11.650;2022-10-16T11:40:49;0.83;;;0.40;;
14611;SDS011;7392;52.078;11.650;2022-10-16T11:43:26;0.83;;;0.40;;
14611;SDS011;7392;52.078;11.650;2022-10-16T11:46:01;0.80;;;0.53;;
14611;SDS011;7392;52.078;11.650;2022-10-16T11:48:36;1.20;;;0.40;;
14611;SDS011;7392;52.078;11.650;2022-10-16T11:51:11;0.30;;;0.30;;
14611;SDS011;7392;52.078;11.650;2022-10-16T11:53:45;0.67;;;0.40;;
14611;SDS011;7392;52.078;11.650;2022-10-16T11:56:18;0.63;;;0.40;;
14611;SDS011;7392;52.078;11.650;2022-10-16T11:58:52;0.70;;;0.47;;
14611;SDS011;7392;52.078;11.650;2022-10-16T12:01:27;0.57;;;0.53;;
14611;SDS011;7392;52.078;11.650;2022-10-16T12:06:47;0.57;;;0.30;;
14611;SDS011;7392;52.078;11.650;2022-10-16T12:09:20;2.93;;;0.63;;
14611;SDS011;7392;52.078;11.650;2022-10-16T12:11:52;0.83;;;0.70;;
14611;SDS011;7392;52.078;11.650;2022-10-16T12:14:32;1.30;;;0.70;;
14611;SDS011;7392;52.078;11.650;2022-10-16T12:17:25;1.60;;;0.70;;
14611;SDS011;7392;52.078;11.650;2022-10-16T12:19:58;0.60;;;0.60;;
14611;SDS011;7392;52.078;11.650;2022-10-16T12:22:28;0.70;;;0.60;;
14611;SDS011;7392;52.078;11.650;2022-10-16T12:25:02;0.50;;;0.50;;
14611;SDS011;7392;52.078;11.650;2022-10-16T12:27:31;0.63;;;0.50;;
14611;SDS011;7392;52.078;11.650;2022-10-16T12:30:02;0.80;;;0.43;;
14611;SDS011;7392;52.078;11.650;2022-10-16T12:32:34;0.50;;;0.50;;
14611;SDS011;7392;52.078;11.650;2022-10-16T12:35:18;0.60;;;0.60;;
14611;SDS011;7392;52.078;11.650;2022-10-16T12:37:48;1.07;;;0.80;;
14611;SDS011;7392;52.078;11.650;2022-10-16T12:40:23;1.60;;;0.80;;
14611;SDS011;7392;52.078;11.650;2022-10-16T12:42:55;1.53;;;0.60;;
14611;SDS011;7392;52.078;11.650;2022-10-16T12:45:26;1.17;;;0.60;;
14611;SDS011;7392;52.078;11.650;2022-10-16T12:47:57;0.73;;;0.50;;
14611;SDS011;7392;52.078;11.650;2022-10-16T12:50:32;1.10;;;0.60;;
14611;SDS011;7392;52.078;11.650;2022-10-16T12:53:02;0.73;;;0.50;;
14611;SDS011;7392;52.078;11.650;2022-10-16T12:55:34;0.67;;;0.53;;
14611;SDS011;7392;52.078;11.650;2022-10-16T12:58:16;0.80;;;0.57;;
14611;SDS011;7392;52.078;11.650;2022-10-16T13:00:58;0.93;;;0.70;;
14611;SDS011;7392;52.078;11.650;2022-10-16T13:03:43;0.70;;;0.60;;
14611;SDS011;7392;52.078;11.650;2022-10-16T13:06:25;0.40;;;0.40;;
14611;SDS011;7392;52.078;11.650;2022-10-16T13:09:08;2.40;;;0.60;;
14611;SDS011;7392;52.078;11.650;2022-10-16T13:11:54;0.50;;;0.43;;
14611;SDS011;7392;52.078;11.650;2022-10-16T13:14:36;0.90;;;0.50;;
14611;SDS011;7392;52.078;11.650;2022-10-16T13:17:21;0.87;;;0.60;;
14611;SDS011;7392;52.078;11.650;2022-10-16T13:19:57;1.40;;;0.67;;
14611;SDS011;7392;52.078;11.650;2022-10-16T13:22:35;0.40;;;0.40;;
14611;SDS011;7392;52.078;11.650;2022-10-16T13:25:18;1.53;;;0.90;;
14611;SDS011;7392;52.078;11.650;2022-10-16T13:27:55;0.67;;;0.50;;
14611;SDS011;7392;52.078;11.650;2022-10-16T13:30:25;0.47;;;0.43;;
14611;SDS011;7392;52.078;11.650;2022-10-16T13:32:59;0.50;;;0.40;;
14611;SDS011;7392;52.078;11.650;2022-10-16T13:35:30;0.50;;;0.50;;
14611;SDS011;7392;52.078;11.650;2022-10-16T13:38:03;0.90;;;0.53;;
14611;SDS011;7392;52.078;11.650;2022-10-16T13:40:49;0.60;;;0.60;;
14611;SDS011;7392;52.078;11.650;2022-10-16T13:43:20;1.17;;;0.53;;
14611;SDS011;7392;52.078;11.650;2022-10-16T13:45:57;0.40;;;0.37;;
14611;SDS011;7392;52.078;11.650;2022-10-16T13:48:28;0.90;;;0.60;;
14611;SDS011;7392;52.078;11.650;2022-10-16T13:51:01;0.77;;;0.47;;
14611;SDS011;7392;52.078;11.650;2022-10-16T13:53:34;0.70;;;0.40;;
14611;SDS011;7392;52.078;11.650;2022-10-16T13:56:03;0.80;;;0.50;;
14611;SDS011;7392;52.078;11.650;2022-10-16T13:58:33;0.73;;;0.47;;
14611;SDS011;7392;52.078;11.650;2022-10-16T14:01:02;0.50;;;0.33;;
14611;SDS011;7392;52.078;11.650;2022-10-16T14:03:33;0.30;;;0.23;;
14611;SDS011;7392;52.078;11.650;2022-10-16T14:06:03;0.97;;;0.50;;
14611;SDS011;7392;52.078;11.650;2022-10-16T14:08:35;0.30;;;0.30;;
14611;SDS011;7392;52.078;11.650;2022-10-16T14:11:03;1.27;;;0.40;;
14611;SDS011;7392;52.078;11.650;2022-10-16T14:13:31;0.30;;;0.23;;
14611;SDS011;7392;52.078;11.650;2022-10-16T14:16:05;0.90;;;0.40;;
14611;SDS011;7392;52.078;11.650;2022-10-16T14:18:38;0.60;;;0.37;;
14611;SDS011;7392;52.078;11.650;2022-10-16T14:21:10;0.43;;;0.30;;
14611;SDS011;7392;52.078;11.650;2022-10-16T14:23:42;0.50;;;0.40;;
14611;SDS011;7392;52.078;11.650;2022-10-16T14:26:15;0.57;;;0.30;;
14611;SDS011;7392;52.078;11.650;2022-10-16T14:28:45;0.60;;;0.37;;
14611;SDS011;7392;52.078;11.650;2022-10-16T14:31:24;0.47;;;0.30;;
14611;SDS011;7392;52.078;11.650;2022-10-16T14:33:55;0.33;;;0.30;;
14611;SDS011;7392;52.078;11.650;2022-10-16T14:36:24;0.47;;;0.30;;
14611;SDS011;7392;52.078;11.650;2022-10-16T14:38:57;0.60;;;0.20;;
14611;SDS011;7392;52.078;11.650;2022-10-16T14:41:29;0.37;;;0.30;;
14611;SDS011;7392;52.078;11.650;2022-10-16T14:44:00;0.67;;;0.30;;
14611;SDS011;7392;52.078;11.650;2022-10-16T14:46:31;0.60;;;0.47;;
14611;SDS011;7392;52.078;11.650;2022-10-16T14:49:04;0.23;;;0.23;;
14611;SDS011;7392;52.078;11.650;2022-10-16T14:51:44;0.30;;;0.30;;
14611;SDS011;7392;52.078;11.650;2022-10-16T14:54:12;0.40;;;0.30;;
14611;SDS011;7392;52.078;11.650;2022-10-16T14:56:45;0.40;;;0.30;;
14611;SDS011;7392;52.078;11.650;2022-10-16T14:59:16;0.30;;;0.30;;
14611;SDS011;7392;52.078;11.650;2022-10-16T15:01:46;0.30;;;0.30;;
14611;SDS011;7392;52.078;11.650;2022-10-16T15:04:16;0.47;;;0.40;;
14611;SDS011;7392;52.078;11.650;2022-10-16T15:06:45;0.20;;;0.20;;
14611;SDS011;7392;52.078;11.650;2022-10-16T15:09:12;0.20;;;0.20;;
14611;SDS011;7392;52.078;11.650;2022-10-16T15:11:40;0.30;;;0.20;;
14611;SDS011;7392;52.078;11.650;2022-10-16T15:14:10;0.10;;;0.10;;
14611;SDS011;7392;52.078;11.650;2022-10-16T15:16:44;0.10;;;0.10;;
14611;SDS011;7392;52.078;11.650;2022-10-16T15:19:13;0.23;;;0.23;;
14611;SDS011;7392;52.078;11.650;2022-10-16T15:21:42;0.20;;;0.20;;
14611;SDS011;7392;52.078;11.650;2022-10-16T15:24:11;0.03;;;0.03;;